Time;durP1;ratioP1;P1;durP2;ratioP2;P2;SDS_P1;SDS_P2;PMS_P1;PMS_P2;Temp;Humidity;BMP_temperature;BMP_pressure;BME280_temperature;BME280_humidity;BME280_pressure;Samples;Min_cycle;Max_cycle;Signal;HPM_P1;HPM_P2
2022/02/01 00:00:40;;;;;;;0.50;0.50;;;6.30;1.00;;;;;;5044372;28;20821;-79
2022/02/01 00:03:09;;;;;;;0.70;0.70;;;6.20;1.00;;;;;;5037906;28;20454;-79
2022/02/01 00:05:45;;;;;;;0.70;0.70;;;6.30;1.00;;;;;;5037595;28;20966;-79
2022/02/01 00:08:20;;;;;;;1.40;0.83;;;6.20;1.00;;;;;;5040636;28;21021;-79
2022/02/01 00:10:57;;;;;;;0.93;0.60;;;6.30;1.00;;;;;;5039979;28;20447;-79
2022/02/01 00:13:36;;;;;;;0.60;0.60;;;6.20;1.00;;;;;;5048512;28;20220;-79
2022/02/01 00:19:22;;;;;;;0.70;0.50;;;6.30;1.00;;;;;;4979344;28;20538;-79
2022/02/01 00:35:58;;;;;;;0.60;0.60;;;6.60;1.00;;;;;;4971445;28;20461;-79
2022/02/01 00:38:34;;;;;;;0.80;0.80;;;6.60;1.00;;;;;;5026369;28;20570;-78
2022/02/01 00:41:05;;;;;;;0.90;0.70;;;6.80;1.00;;;;;;5040699;28;21283;-78
2022/02/01 00:43:36;;;;;;;0.93;0.50;;;6.60;99.90;;;;;;5043376;28;20992;-78
2022/02/01 00:46:05;;;;;;;0.57;0.50;;;6.60;99.90;;;;;;5041081;28;20201;-78
2022/02/01 00:48:34;;;;;;;0.73;0.60;;;6.60;1.00;;;;;;5041580;28;20505;-78
2022/02/01 00:51:03;;;;;;;1.40;0.57;;;6.70;99.90;;;;;;5039203;28;20467;-78
2022/02/01 00:53:32;;;;;;;0.63;0.50;;;6.70;99.90;;;;;;5041941;28;20844;-78
2022/02/01 00:56:00;;;;;;;1.07;0.80;;;6.70;99.90;;;;;;5039135;28;20501;-78
2022/02/01 00:58:29;;;;;;;0.70;0.50;;;6.70;99.90;;;;;;5039305;28;20550;-78
2022/02/01 01:00:57;;;;;;;1.87;0.70;;;6.70;99.90;;;;;;5034128;28;20490;-78
2022/02/01 01:03:25;;;;;;;0.63;0.60;;;6.70;99.90;;;;;;5056803;28;20450;-78
2022/02/01 01:05:54;;;;;;;0.93;0.70;;;6.70;99.90;;;;;;5037694;28;20478;-78
2022/02/01 01:08:22;;;;;;;1.13;0.80;;;6.60;99.90;;;;;;5042015;28;20475;-78
2022/02/01 01:10:52;;;;;;;0.80;0.60;;;6.70;99.90;;;;;;5042506;28;20455;-79
2022/02/01 01:13:44;;;;;;;0.60;0.60;;;6.70;99.90;;;;;;5046402;28;20479;-79
2022/02/01 01:16:26;;;;;;;2.53;0.90;;;6.70;99.90;;;;;;5039338;28;20509;-78
2022/02/01 01:38:40;;;;;;;1.20;0.70;;;6.60;99.90;;;;;;5044074;28;20483;-78
2022/02/01 01:44:24;;;;;;;0.87;0.70;;;6.70;99.90;;;;;;4997240;28;20541;-79
2022/02/01 01:55:11;;;;;;;5.37;0.80;;;6.30;1.00;;;;;;5043580;28;20462;-78
2022/02/01 01:57:40;;;;;;;2.63;0.90;;;6.40;1.00;;;;;;5038908;28;20471;-79
2022/02/01 02:00:22;;;;;;;2.37;0.70;;;6.50;1.00;;;;;;5041568;28;20461;-80
2022/02/01 02:02:50;;;;;;;1.63;1.00;;;6.50;1.00;;;;;;5040917;28;20455;-79
2022/02/01 02:05:19;;;;;;;1.20;0.73;;;6.40;1.00;;;;;;5040152;28;20448;-79
2022/02/01 02:07:48;;;;;;;1.60;0.90;;;6.20;1.00;;;;;;5041597;28;20479;-78
2022/02/01 02:10:18;;;;;;;2.60;0.77;;;6.30;1.00;;;;;;5049825;28;20452;-78
2022/02/01 02:12:57;;;;;;;2.20;0.90;;;6.20;1.00;;;;;;5041376;28;20459;-78
2022/02/01 02:15:30;;;;;;;2.60;1.23;;;6.40;1.00;;;;;;5039538;28;21141;-78
2022/02/01 02:18:01;;;;;;;2.27;0.90;;;6.40;1.00;;;;;;5040945;28;20574;-78
2022/02/01 02:20:41;;;;;;;1.05;0.88;;;6.40;1.00;;;;;;5042648;28;20439;-79
2022/02/01 02:23:11;;;;;;;2.10;0.80;;;6.40;1.00;;;;;;5044516;28;20207;-78
2022/02/01 02:25:39;;;;;;;3.93;1.30;;;6.50;1.00;;;;;;5036422;28;20455;-78
2022/02/01 02:28:11;;;;;;;4.03;0.77;;;6.50;1.00;;;;;;5042351;28;20480;-78
2022/02/01 02:30:40;;;;;;;2.33;1.27;;;6.50;1.00;;;;;;5036064;28;20837;-78
2022/02/01 02:33:11;;;;;;;1.00;0.70;;;6.50;1.00;;;;;;5040446;28;20487;-78
2022/02/01 02:35:52;;;;;;;7.43;1.00;;;6.40;1.00;;;;;;5040802;28;20897;-79
2022/02/01 02:38:30;;;;;;;3.07;0.80;;;6.40;1.00;;;;;;5035735;28;21047;-78
2022/02/01 02:41:09;;;;;;;9.30;1.10;;;6.40;1.00;;;;;;5041335;28;20967;-78
2022/02/01 02:46:24;;;;;;;5.10;1.07;;;6.30;1.00;;;;;;5037110;28;20982;-78
2022/02/01 02:48:53;;;;;;;3.07;1.10;;;6.60;1.00;;;;;;5034630;28;20479;-77
2022/02/01 02:51:22;;;;;;;3.93;1.17;;;6.50;1.00;;;;;;5042408;28;20454;-77
2022/02/01 02:53:52;;;;;;;2.13;1.00;;;6.50;1.00;;;;;;5040022;28;20479;-77
2022/02/01 02:56:20;;;;;;;2.03;0.90;;;6.50;1.00;;;;;;5041685;28;21132;-78
2022/02/01 02:58:51;;;;;;;2.60;0.63;;;6.40;1.00;;;;;;5040068;28;20479;-77
2022/02/01 03:01:20;;;;;;;2.97;0.83;;;6.70;1.00;;;;;;5038875;28;20506;-78
2022/02/01 03:03:48;;;;;;;1.20;1.10;;;6.40;1.00;;;;;;5041973;28;20435;-78
2022/02/01 03:06:16;;;;;;;6.97;1.10;;;6.30;1.00;;;;;;5040463;28;20471;-80
2022/02/01 03:08:44;;;;;;;1.47;0.90;;;6.30;1.00;;;;;;5037407;28;20484;-78
2022/02/01 03:11:15;;;;;;;2.37;1.30;;;6.20;1.00;;;;;;5041123;28;20444;-77
2022/02/01 03:13:49;;;;;;;2.20;1.10;;;6.20;1.00;;;;;;5051270;28;20503;-78
2022/02/01 03:21:49;;;;;;;1.70;1.10;;;6.40;99.90;;;;;;5038450;28;20448;-77
2022/02/01 03:24:17;;;;;;;1.60;1.07;;;6.50;99.90;;;;;;5038808;28;20448;-78
2022/02/01 03:26:47;;;;;;;1.80;0.97;;;6.40;99.90;;;;;;5037936;28;20854;-77
2022/02/01 03:29:15;;;;;;;3.73;0.83;;;6.40;99.90;;;;;;5039539;28;20464;-79
2022/02/01 03:31:44;;;;;;;4.30;1.00;;;6.80;99.90;;;;;;5038837;28;21037;-80
2022/02/01 03:34:12;;;;;;;7.35;1.58;;;6.40;99.90;;;;;;5037677;28;20537;-79
2022/02/01 03:36:40;;;;;;;1.88;1.33;;;6.50;99.90;;;;;;5038615;28;20234;-79
2022/02/01 03:39:08;;;;;;;3.53;1.00;;;6.50;99.90;;;;;;5037945;28;20224;-80
2022/02/01 03:41:37;;;;;;;2.03;1.10;;;6.50;99.90;;;;;;5035901;28;20470;-78
2022/02/01 03:44:07;;;;;;;1.87;1.00;;;6.50;99.90;;;;;;5035322;28;20453;-77
2022/02/01 03:46:35;;;;;;;2.30;0.93;;;6.50;99.90;;;;;;5040099;28;20826;-78
2022/02/01 03:49:03;;;;;;;5.60;1.27;;;6.40;99.90;;;;;;5048757;28;21167;-79
2022/02/01 03:51:31;;;;;;;3.03;1.00;;;6.40;99.90;;;;;;5034811;28;20455;-80
2022/02/01 03:54:00;;;;;;;3.90;1.27;;;6.50;99.90;;;;;;5035687;28;20542;-79
2022/02/01 03:56:28;;;;;;;1.20;0.90;;;6.50;99.90;;;;;;5043119;28;20486;-79
2022/02/01 03:58:56;;;;;;;7.90;1.10;;;6.50;99.90;;;;;;5041127;28;20560;-79
2022/02/01 04:01:28;;;;;;;3.90;0.90;;;6.50;99.90;;;;;;5040499;28;20457;-79
2022/02/01 04:03:58;;;;;;;2.50;1.33;;;6.50;99.90;;;;;;5039539;28;20447;-78
2022/02/01 04:06:26;;;;;;;2.83;1.10;;;6.40;99.90;;;;;;5041195;28;21008;-79
2022/02/01 04:08:54;;;;;;;1.53;0.90;;;6.40;99.90;;;;;;5044039;28;20550;-78
2022/02/01 04:11:23;;;;;;;7.97;1.33;;;6.40;99.90;;;;;;5044149;28;20481;-79
2022/02/01 04:13:51;;;;;;;6.17;0.93;;;6.40;99.90;;;;;;5048457;28;20907;-79
2022/02/01 04:16:19;;;;;;;2.20;1.30;;;6.50;99.90;;;;;;5042956;28;20463;-79
2022/02/01 04:18:49;;;;;;;1.00;1.00;;;6.50;99.90;;;;;;5046624;28;20483;-79
2022/02/01 04:21:17;;;;;;;5.47;1.20;;;6.50;99.90;;;;;;5046229;28;20552;-79
2022/02/01 04:23:46;;;;;;;6.13;1.30;;;6.80;99.90;;;;;;5042395;28;20546;-78
2022/02/01 04:26:14;;;;;;;6.47;1.27;;;6.60;99.90;;;;;;5041213;28;20544;-80
2022/02/01 04:28:42;;;;;;;3.63;0.90;;;6.60;99.90;;;;;;5044116;28;20508;-80
2022/02/01 04:31:10;;;;;;;8.43;1.20;;;6.60;99.90;;;;;;5043698;28;20455;-78
2022/02/01 04:33:39;;;;;;;6.03;1.07;;;6.50;99.90;;;;;;5044484;28;20452;-78
2022/02/01 04:36:09;;;;;;;9.07;1.50;;;6.50;99.90;;;;;;5044608;28;20602;-79
2022/02/01 04:38:41;;;;;;;4.00;1.37;;;6.60;99.90;;;;;;5048670;28;20475;-79
2022/02/01 04:41:09;;;;;;;4.87;0.97;;;6.60;99.90;;;;;;5039927;28;20492;-78
2022/02/01 04:43:38;;;;;;;5.40;0.93;;;6.60;99.90;;;;;;5046269;28;20562;-78
2022/02/01 04:46:09;;;;;;;2.30;1.00;;;6.60;99.90;;;;;;5046440;28;20449;-79
2022/02/01 04:48:37;;;;;;;3.73;1.03;;;6.80;99.90;;;;;;5048607;28;20485;-79
2022/02/01 04:51:06;;;;;;;5.77;1.37;;;6.70;99.90;;;;;;5049286;28;20547;-78
2022/02/01 04:53:35;;;;;;;5.43;1.47;;;6.60;99.90;;;;;;5053287;28;21024;-79
2022/02/01 04:56:04;;;;;;;3.70;1.10;;;6.60;99.90;;;;;;5066310;28;20575;-79
2022/02/01 04:58:33;;;;;;;10.23;1.53;;;6.60;99.90;;;;;;5052464;28;20714;-79
2022/02/01 05:01:01;;;;;;;2.53;1.03;;;6.60;99.90;;;;;;5046797;28;20502;-80
2022/02/01 05:03:29;;;;;;;5.07;0.95;;;6.50;99.90;;;;;;5046070;28;20456;-79
2022/02/01 05:05:58;;;;;;;4.20;1.10;;;6.50;99.90;;;;;;5044684;28;20227;-79
2022/02/01 05:08:26;;;;;;;4.60;0.93;;;6.60;99.90;;;;;;5047813;28;20498;-79
2022/02/01 05:10:56;;;;;;;5.13;0.93;;;6.50;99.90;;;;;;5046743;28;20507;-76
2022/02/01 05:13:51;;;;;;;4.33;1.03;;;6.50;99.90;;;;;;5058856;28;21186;-77
2022/02/01 05:16:24;;;;;;;3.70;1.03;;;6.70;99.90;;;;;;5045917;28;20475;-80
2022/02/01 05:19:02;;;;;;;4.70;0.90;;;6.60;99.90;;;;;;5043945;28;20490;-79
2022/02/01 05:21:32;;;;;;;3.40;0.87;;;6.60;99.90;;;;;;5038054;28;20438;-79
2022/02/01 05:24:02;;;;;;;2.73;1.00;;;6.60;99.90;;;;;;5037739;28;20462;-79
2022/02/01 05:26:32;;;;;;;6.70;1.23;;;6.60;99.90;;;;;;5041873;28;20444;-79
2022/02/01 05:29:00;;;;;;;3.00;1.03;;;6.60;99.90;;;;;;5038585;28;21064;-79
2022/02/01 05:31:29;;;;;;;6.10;1.00;;;6.60;99.90;;;;;;5041409;28;20451;-79
2022/02/01 05:33:57;;;;;;;4.75;1.10;;;6.60;99.90;;;;;;5040469;28;20466;-79
2022/02/01 05:36:26;;;;;;;7.67;0.90;;;6.60;99.90;;;;;;5037720;28;20713;-78
2022/02/01 05:38:55;;;;;;;7.90;1.17;;;6.60;99.90;;;;;;5036189;28;20490;-78
2022/02/01 05:41:25;;;;;;;7.17;1.20;;;6.80;99.90;;;;;;5032794;28;23683;-78
2022/02/01 05:43:55;;;;;;;3.10;1.37;;;6.50;99.90;;;;;;5038695;28;20464;-78
2022/02/01 05:46:24;;;;;;;3.07;0.83;;;6.50;99.90;;;;;;5034084;28;20475;-77
2022/02/01 05:48:52;;;;;;;8.33;1.00;;;6.50;99.90;;;;;;5037895;28;20511;-78
2022/02/01 05:51:20;;;;;;;2.15;1.00;;;6.60;99.90;;;;;;5039820;28;20462;-77
2022/02/01 05:53:49;;;;;;;2.60;0.93;;;6.60;99.90;;;;;;5039837;28;20199;-78
2022/02/01 05:56:17;;;;;;;4.60;1.00;;;6.50;99.90;;;;;;5035135;28;20491;-77
2022/02/01 05:58:45;;;;;;;4.10;1.20;;;6.60;99.90;;;;;;5036181;28;20667;-78
2022/02/01 06:01:14;;;;;;;3.80;1.00;;;6.50;99.90;;;;;;5035415;28;21122;-79
2022/02/01 06:03:43;;;;;;;3.20;1.03;;;6.50;99.90;;;;;;5038357;28;20507;-78
2022/02/01 06:06:13;;;;;;;2.80;1.30;;;6.50;99.90;;;;;;5038428;28;20494;-78
2022/02/01 06:08:41;;;;;;;3.57;1.10;;;6.50;99.90;;;;;;5037186;28;20472;-77
2022/02/01 06:11:10;;;;;;;4.90;1.20;;;6.50;99.90;;;;;;5035859;28;21188;-78
2022/02/01 06:13:38;;;;;;;7.33;1.00;;;6.50;99.90;;;;;;5033542;28;20527;-77
2022/02/01 06:16:07;;;;;;;2.07;1.33;;;6.40;99.90;;;;;;5038579;28;20481;-77
2022/02/01 06:18:36;;;;;;;2.17;1.30;;;6.40;99.90;;;;;;5033283;28;20486;-77
2022/02/01 06:21:05;;;;;;;5.30;0.97;;;6.40;99.90;;;;;;5037678;28;20459;-76
2022/02/01 06:23:33;;;;;;;3.00;1.10;;;6.50;99.90;;;;;;5040755;28;20989;-78
2022/02/01 06:26:01;;;;;;;4.60;1.70;;;6.50;99.90;;;;;;5034677;28;20443;-77
2022/02/01 06:28:30;;;;;;;5.70;1.70;;;6.40;99.90;;;;;;5037865;28;20300;-78
2022/02/01 06:30:58;;;;;;;2.80;1.30;;;6.40;99.90;;;;;;5037345;28;20539;-78
2022/02/01 06:33:27;;;;;;;3.93;1.33;;;6.50;99.90;;;;;;5035480;28;20464;-78
2022/02/01 06:35:57;;;;;;;8.43;1.70;;;6.50;99.90;;;;;;5044871;28;20499;-78
2022/02/01 06:38:25;;;;;;;7.88;1.33;;;6.50;99.90;;;;;;5046374;28;20220;-78
2022/02/01 06:40:53;;;;;;;6.38;1.30;;;6.50;99.90;;;;;;5051253;28;20515;-77
2022/02/01 06:43:21;;;;;;;6.00;1.37;;;6.30;99.90;;;;;;5045753;28;20196;-77
2022/02/01 06:45:49;;;;;;;2.13;0.90;;;6.30;99.90;;;;;;5049541;28;20463;-78
2022/02/01 06:48:18;;;;;;;7.40;3.33;;;6.50;99.90;;;;;;5049054;28;20451;-78
2022/02/01 06:50:46;;;;;;;4.63;1.30;;;6.30;99.90;;;;;;5045008;28;20209;-77
2022/02/01 06:53:18;;;;;;;3.00;1.10;;;6.40;99.90;;;;;;5056927;28;20471;-77
2022/02/01 06:55:58;;;;;;;12.00;1.33;;;6.60;99.90;;;;;;5036305;28;20479;-77
2022/02/01 06:58:27;;;;;;;4.73;1.80;;;6.40;99.90;;;;;;5045115;28;20224;-78
2022/02/01 07:00:55;;;;;;;4.83;1.00;;;6.50;99.90;;;;;;5049333;28;20471;-79
2022/02/01 07:03:23;;;;;;;6.63;1.60;;;6.40;99.90;;;;;;5040862;28;20981;-78
2022/02/01 07:05:52;;;;;;;1.80;0.87;;;6.30;99.90;;;;;;5057224;28;20548;-78
2022/02/01 07:08:22;;;;;;;4.47;1.07;;;6.20;99.90;;;;;;5051501;28;20489;-78
2022/02/01 07:10:50;;;;;;;4.95;1.15;;;6.20;99.90;;;;;;5045860;28;20448;-77
2022/02/01 07:13:18;;;;;;;5.27;1.20;;;6.30;99.90;;;;;;5046934;28;20571;-78
2022/02/01 07:15:47;;;;;;;2.77;0.90;;;6.30;99.90;;;;;;5049672;28;20475;-78
2022/02/01 07:18:15;;;;;;;3.38;0.70;;;6.30;99.90;;;;;;5049482;28;20495;-78
2022/02/01 07:20:43;;;;;;;2.43;1.00;;;6.10;99.90;;;;;;5057748;28;20208;-77
2022/02/01 07:23:20;;;;;;;8.27;0.97;;;6.00;99.90;;;;;;5047460;28;20509;-77
2022/02/01 07:25:49;;;;;;;6.27;1.03;;;6.00;99.90;;;;;;5042480;28;20461;-77
2022/02/01 07:28:19;;;;;;;3.50;0.90;;;6.00;99.90;;;;;;5052666;28;20468;-77
2022/02/01 07:30:48;;;;;;;1.43;0.70;;;5.70;99.90;;;;;;5051471;28;21020;-78
2022/02/01 07:33:17;;;;;;;3.85;1.17;;;5.70;99.90;;;;;;5063821;28;21009;-78
2022/02/01 07:35:47;;;;;;;5.07;1.13;;;5.80;99.90;;;;;;5042788;28;20198;-78
2022/02/01 07:38:18;;;;;;;5.87;0.87;;;5.90;99.90;;;;;;5050625;28;20490;-78
2022/02/01 07:40:49;;;;;;;6.07;1.40;;;5.70;99.90;;;;;;5042443;28;20456;-78
2022/02/01 07:43:18;;;;;;;1.40;0.90;;;5.70;99.90;;;;;;5062755;28;20206;-77
2022/02/01 07:45:48;;;;;;;4.17;1.20;;;5.50;99.90;;;;;;5052278;28;20201;-78
2022/02/01 07:48:17;;;;;;;7.97;1.38;;;5.40;99.90;;;;;;5059678;28;20479;-78
2022/02/01 07:50:45;;;;;;;3.55;1.20;;;5.40;99.90;;;;;;5058213;28;20206;-77
2022/02/01 07:53:13;;;;;;;2.88;1.00;;;5.30;99.90;;;;;;5052094;28;20210;-77
2022/02/01 07:55:42;;;;;;;1.77;0.90;;;5.20;99.90;;;;;;5054899;28;20227;-76
2022/02/01 07:58:11;;;;;;;7.80;0.90;;;5.40;99.90;;;;;;5053206;28;20278;-77
2022/02/01 08:00:40;;;;;;;1.38;0.75;;;5.30;99.90;;;;;;5052836;28;20491;-78
2022/02/01 08:03:09;;;;;;;3.08;0.98;;;5.10;99.90;;;;;;5050705;28;20210;-77
2022/02/01 08:05:38;;;;;;;1.93;1.10;;;4.90;99.90;;;;;;5057766;28;20268;-78
2022/02/01 08:08:08;;;;;;;2.25;0.95;;;5.10;99.90;;;;;;5041754;28;20466;-77
2022/02/01 08:10:42;;;;;;;7.72;1.27;;;5.10;99.90;;;;;;5060764;28;20454;-78
2022/02/01 08:18:58;;;;;;;1.88;0.88;;;5.30;99.90;;;;;;5051932;28;20259;-78
2022/02/01 08:21:47;;;;;;;2.87;0.90;;;5.30;99.90;;;;;;5035703;28;20204;-77
2022/02/01 08:24:15;;;;;;;2.75;0.93;;;5.30;99.90;;;;;;5079624;28;20529;-78
2022/02/01 08:26:44;;;;;;;4.20;1.15;;;5.40;99.90;;;;;;5050535;28;20194;-77
2022/02/01 08:29:14;;;;;;;2.50;0.90;;;5.40;99.90;;;;;;5048593;28;20251;-79
2022/02/01 08:31:46;;;;;;;0.95;0.80;;;5.40;99.90;;;;;;5048801;28;20565;-78
2022/02/01 08:34:16;;;;;;;1.73;1.20;;;5.40;99.90;;;;;;5060984;28;20224;-78
2022/02/01 08:36:44;;;;;;;8.45;1.23;;;5.50;99.90;;;;;;5051233;28;20476;-77
2022/02/01 08:39:12;;;;;;;1.00;0.90;;;5.40;99.90;;;;;;5048274;28;20232;-78
2022/02/01 08:41:40;;;;;;;4.00;1.15;;;5.50;99.90;;;;;;5054891;28;20459;-76
2022/02/01 08:44:10;;;;;;;2.65;1.25;;;5.60;99.90;;;;;;5053294;28;20206;-78
2022/02/01 08:46:40;;;;;;;3.53;1.20;;;5.70;99.90;;;;;;5049669;28;20220;-78
2022/02/01 08:49:08;;;;;;;1.90;0.90;;;5.80;99.90;;;;;;5047177;28;20469;-78
2022/02/01 08:51:42;;;;;;;4.00;1.80;;;5.60;99.90;;;;;;5055609;28;21118;-78
2022/02/01 08:54:18;;;;;;;1.83;0.70;;;5.70;99.90;;;;;;5046474;28;20206;-78
2022/02/01 08:59:32;;;;;;;2.83;1.20;;;6.00;99.90;;;;;;5050783;28;20447;-79
2022/02/01 09:02:03;;;;;;;2.93;1.00;;;5.90;99.90;;;;;;5049295;28;20460;-78
2022/02/01 09:04:31;;;;;;;1.70;0.80;;;6.10;99.90;;;;;;5059159;28;20458;-77
2022/02/01 09:07:00;;;;;;;0.80;0.80;;;6.30;99.90;;;;;;5055019;28;20976;-79
2022/02/01 09:09:30;;;;;;;2.53;1.03;;;6.30;99.90;;;;;;5051111;28;20470;-78
2022/02/01 09:11:58;;;;;;;0.73;0.73;;;6.10;99.90;;;;;;5044679;28;20484;-79
2022/02/01 09:14:28;;;;;;;3.67;1.00;;;6.10;99.90;;;;;;5045196;28;20476;-78
2022/02/01 09:16:58;;;;;;;0.80;0.80;;;6.10;99.90;;;;;;5058760;28;20471;-78
2022/02/01 09:19:28;;;;;;;0.97;0.80;;;6.00;99.90;;;;;;5047895;28;20461;-79
2022/02/01 09:21:57;;;;;;;2.47;1.20;;;6.10;99.90;;;;;;5046154;28;20471;-78
2022/02/01 09:24:26;;;;;;;3.30;1.10;;;6.20;99.90;;;;;;5053726;28;20470;-78
2022/02/01 09:26:54;;;;;;;1.73;0.80;;;6.20;99.90;;;;;;5053098;28;20452;-78
2022/02/01 09:29:23;;;;;;;1.80;1.00;;;6.20;99.90;;;;;;5063255;28;20530;-79
2022/02/01 09:31:52;;;;;;;1.33;0.60;;;6.30;99.90;;;;;;5054221;28;20451;-78
2022/02/01 09:34:22;;;;;;;0.80;0.80;;;6.20;99.90;;;;;;5049357;28;20448;-78
2022/02/01 09:36:54;;;;;;;2.83;0.90;;;6.00;99.90;;;;;;5049067;28;20447;-78
2022/02/01 09:39:23;;;;;;;2.92;0.80;;;5.70;99.90;;;;;;5047336;28;20710;-78
2022/02/01 09:41:53;;;;;;;1.08;0.95;;;5.50;99.90;;;;;;5041250;28;20201;-78
2022/02/01 09:44:22;;;;;;;4.80;0.80;;;5.40;99.90;;;;;;5048286;28;20208;-78
2022/02/01 09:46:52;;;;;;;4.20;0.77;;;5.60;99.90;;;;;;5048829;28;20440;-77
2022/02/01 09:49:24;;;;;;;1.42;0.93;;;5.40;99.90;;;;;;5045337;28;20201;-78
2022/02/01 09:51:57;;;;;;;1.45;0.60;;;5.30;99.90;;;;;;5059884;28;20206;-78
2022/02/01 09:54:27;;;;;;;4.55;0.80;;;5.30;99.90;;;;;;5042282;28;20255;-78
2022/02/01 09:56:58;;;;;;;1.10;0.63;;;5.30;99.90;;;;;;5043374;28;20285;-77
2022/02/01 09:59:31;;;;;;;4.00;0.70;;;5.40;99.90;;;;;;5046071;28;20450;-78
2022/02/01 10:02:06;;;;;;;1.40;0.80;;;5.30;99.90;;;;;;5042652;28;20440;-78
2022/02/01 10:04:35;;;;;;;2.33;0.93;;;5.50;99.90;;;;;;5060232;28;20234;-77
2022/02/01 10:07:11;;;;;;;2.08;0.65;;;5.60;99.90;;;;;;5050189;28;20450;-78
2022/02/01 10:09:50;;;;;;;1.03;0.70;;;5.50;99.90;;;;;;5046234;28;20288;-79
2022/02/01 10:12:19;;;;;;;6.23;1.50;;;5.70;99.90;;;;;;5054719;28;20443;-77
2022/02/01 10:14:54;;;;;;;1.87;0.80;;;5.60;99.90;;;;;;5051399;28;20521;-78
2022/02/01 10:17:34;;;;;;;3.50;0.90;;;5.60;99.90;;;;;;5047387;28;20491;-78
2022/02/01 10:20:03;;;;;;;3.55;0.80;;;5.60;99.90;;;;;;5050223;28;20489;-77
2022/02/01 10:22:35;;;;;;;2.20;0.85;;;5.40;99.90;;;;;;5051335;28;20879;-78
2022/02/01 10:25:05;;;;;;;1.47;0.90;;;5.60;99.90;;;;;;5047818;28;20240;-78
2022/02/01 10:27:37;;;;;;;1.50;0.80;;;6.00;99.90;;;;;;5049253;28;20525;-77
2022/02/01 10:30:11;;;;;;;3.63;0.80;;;6.30;99.90;;;;;;5056410;28;20463;-79
2022/02/01 10:33:13;;;;;;;1.30;0.70;;;6.60;99.90;;;;;;5042696;28;20547;-77
2022/02/01 10:35:55;;;;;;;3.30;0.70;;;6.60;99.90;;;;;;5046174;28;20470;-78
2022/02/01 10:38:33;;;;;;;0.70;0.67;;;6.40;99.90;;;;;;5059643;28;20484;-78
2022/02/01 10:41:03;;;;;;;1.63;0.63;;;6.30;99.90;;;;;;5047492;28;20492;-77
2022/02/01 10:43:34;;;;;;;2.83;0.80;;;6.40;99.90;;;;;;5045494;28;20468;-78
2022/02/01 10:46:07;;;;;;;1.20;0.80;;;6.50;99.90;;;;;;5046950;28;20483;-78
2022/02/01 10:48:36;;;;;;;1.40;0.80;;;6.40;99.90;;;;;;5047940;28;20493;-78
2022/02/01 10:51:07;;;;;;;0.70;0.70;;;6.50;99.90;;;;;;5046361;28;20456;-78
2022/02/01 10:53:38;;;;;;;2.23;0.90;;;6.50;99.90;;;;;;5063902;28;20521;-78
2022/02/01 10:56:09;;;;;;;0.73;0.60;;;6.10;99.90;;;;;;5045218;28;20471;-77
2022/02/01 10:58:38;;;;;;;5.03;0.90;;;5.90;99.90;;;;;;5043411;28;20467;-78
2022/02/01 11:01:07;;;;;;;4.63;1.05;;;5.80;99.90;;;;;;5049496;28;20982;-78
2022/02/01 11:03:42;;;;;;;4.57;0.87;;;5.80;99.90;;;;;;5046432;28;20192;-79
2022/02/01 11:06:12;;;;;;;10.03;0.93;;;6.00;99.90;;;;;;5052160;28;20467;-78
2022/02/01 11:08:43;;;;;;;1.47;0.90;;;6.00;99.90;;;;;;5053204;28;20472;-77
2022/02/01 11:11:16;;;;;;;4.43;0.97;;;5.90;99.90;;;;;;5048894;28;20463;-79
2022/02/01 11:13:48;;;;;;;4.53;0.90;;;6.00;99.90;;;;;;5050192;28;20538;-77
2022/02/01 11:16:20;;;;;;;1.87;0.70;;;5.90;99.90;;;;;;5047830;28;20461;-78
2022/02/01 11:18:57;;;;;;;5.40;0.83;;;6.00;99.90;;;;;;5045447;28;20688;-78
2022/02/01 11:21:26;;;;;;;1.40;0.80;;;6.00;99.90;;;;;;5050243;28;20435;-78
2022/02/01 11:24:00;;;;;;;3.07;1.00;;;6.00;99.90;;;;;;5052465;28;20459;-78
2022/02/01 11:26:36;;;;;;;1.90;0.80;;;6.10;99.90;;;;;;5057659;28;20454;-78
2022/02/01 11:32:05;;;;;;;1.00;0.90;;;5.70;99.90;;;;;;5030503;28;20465;-78
2022/02/01 11:35:02;;;;;;;4.40;1.10;;;5.60;99.90;;;;;;5053983;28;20451;-78
2022/02/01 11:37:30;;;;;;;9.63;1.27;;;5.80;99.90;;;;;;5045488;28;20478;-78
2022/02/01 11:40:00;;;;;;;1.33;0.80;;;6.00;99.90;;;;;;5053011;28;20474;-78
2022/02/01 11:42:33;;;;;;;3.00;1.10;;;5.80;99.90;;;;;;5046889;28;20981;-77
2022/02/01 11:45:04;;;;;;;6.60;1.03;;;5.50;99.90;;;;;;5062098;28;20508;-78
2022/02/01 11:47:33;;;;;;;1.57;0.60;;;5.70;99.90;;;;;;5052873;28;20521;-79
2022/02/01 11:50:10;;;;;;;2.33;0.80;;;5.70;99.90;;;;;;5049221;28;20483;-80
2022/02/01 11:52:44;;;;;;;1.27;0.90;;;5.70;99.90;;;;;;5057666;28;20505;-79
2022/02/01 11:55:15;;;;;;;1.63;1.00;;;5.30;99.90;;;;;;5057856;28;20538;-78
2022/02/01 11:57:59;;;;;;;2.97;0.83;;;5.10;99.90;;;;;;5057270;28;20558;-77
2022/02/01 12:00:28;;;;;;;6.37;0.70;;;5.30;99.90;;;;;;5060694;28;20443;-78
2022/02/01 12:02:58;;;;;;;1.53;0.90;;;5.10;99.90;;;;;;5064228;28;20520;-79
2022/02/01 12:05:30;;;;;;;0.98;0.50;;;5.10;99.90;;;;;;5059266;28;20463;-79
2022/02/01 12:08:06;;;;;;;2.90;0.80;;;5.10;99.90;;;;;;5053989;28;20220;-78
2022/02/01 12:10:40;;;;;;;3.67;0.90;;;5.10;99.90;;;;;;5041315;28;20525;-77
2022/02/01 12:13:10;;;;;;;1.70;1.10;;;5.20;99.90;;;;;;5047295;28;20210;-77
2022/02/01 12:15:41;;;;;;;3.20;1.03;;;5.20;99.90;;;;;;5052872;28;20214;-76
2022/02/01 12:18:22;;;;;;;3.20;0.90;;;5.20;99.90;;;;;;5055030;28;20456;-77
2022/02/01 12:21:07;;;;;;;1.33;0.57;;;5.40;99.90;;;;;;5054462;28;20229;-78
2022/02/01 12:23:35;;;;;;;2.10;1.00;;;5.40;99.90;;;;;;5048569;28;20451;-78
2022/02/01 12:26:05;;;;;;;1.53;0.90;;;5.00;99.90;;;;;;5057740;28;20448;-78
2022/02/01 12:28:34;;;;;;;0.70;0.63;;;4.90;99.90;;;;;;5050298;28;20517;-77
2022/02/01 12:31:08;;;;;;;2.43;0.70;;;5.10;99.90;;;;;;5048801;28;20452;-78
2022/02/01 12:33:40;;;;;;;0.40;0.40;;;4.90;99.90;;;;;;5050204;28;20442;-78
2022/02/01 12:36:10;;;;;;;2.90;0.70;;;4.90;99.90;;;;;;5038137;28;20972;-77
2022/02/01 12:38:40;;;;;;;1.15;0.63;;;5.00;99.90;;;;;;5037131;28;20476;-77
2022/02/01 12:41:15;;;;;;;1.60;0.60;;;4.80;99.90;;;;;;5048975;28;20198;-76
2022/02/01 12:45:46;;;;;;;4.88;0.80;;;4.50;99.90;;;;;;5056678;28;20283;-78
2022/02/01 12:46:47;;;;;;;2.60;0.70;;;4.60;99.90;;;;;;5043607;28;20263;-78
2022/02/01 12:49:38;;;;;;;0.60;0.60;;;5.00;99.90;;;;;;5050517;28;20443;-79
2022/02/01 12:52:16;;;;;;;1.27;0.50;;;5.20;99.90;;;;;;5047843;28;20985;-78
2022/02/01 12:54:58;;;;;;;0.95;0.60;;;5.20;99.90;;;;;;5050333;28;20206;-78
2022/02/01 12:57:29;;;;;;;1.23;0.73;;;5.10;99.90;;;;;;5049633;28;20216;-77
2022/02/01 13:00:00;;;;;;;0.83;0.60;;;5.30;99.90;;;;;;5051562;28;20476;-77
2022/02/01 13:02:31;;;;;;;0.60;0.60;;;5.20;99.90;;;;;;5053203;28;20456;-78
2022/02/01 13:05:03;;;;;;;8.00;0.80;;;5.20;99.90;;;;;;5045354;28;20232;-77
2022/02/01 13:07:46;;;;;;;1.95;0.70;;;5.00;99.90;;;;;;5062708;28;20220;-77
2022/02/01 13:13:37;;;;;;;1.43;0.70;;;4.80;99.90;;;;;;5058434;28;20455;-78
2022/02/01 13:16:20;;;;;;;0.57;0.57;;;4.90;99.90;;;;;;5051463;28;20479;-78
2022/02/01 13:21:37;;;;;;;1.23;0.80;;;5.00;99.90;;;;;;5056922;28;20570;-77
2022/02/01 13:24:06;;;;;;;2.20;0.50;;;4.90;99.90;;;;;;5047197;28;20481;-77
2022/02/01 13:26:45;;;;;;;0.70;0.70;;;4.40;99.90;;;;;;5054391;28;20516;-77
2022/02/01 13:29:15;;;;;;;0.77;0.70;;;4.40;99.90;;;;;;5046388;28;20213;-77
2022/02/01 13:31:51;;;;;;;0.90;0.80;;;4.90;99.90;;;;;;5046934;28;20208;-77
2022/02/01 13:34:27;;;;;;;1.40;1.17;;;4.70;99.90;;;;;;5058851;28;20261;-77
2022/02/01 13:36:57;;;;;;;0.80;0.80;;;4.60;99.90;;;;;;5046198;28;20276;-77
2022/02/01 13:39:28;;;;;;;1.15;0.63;;;4.90;99.90;;;;;;5045882;28;20209;-77
2022/02/01 13:41:58;;;;;;;0.73;0.70;;;4.60;99.90;;;;;;5054666;28;20363;-77
2022/02/01 13:44:54;;;;;;;2.97;0.80;;;4.70;99.90;;;;;;5035595;28;20226;-77
2022/02/01 13:47:33;;;;;;;2.17;0.63;;;4.80;99.90;;;;;;5045534;28;20838;-77
2022/02/01 13:50:04;;;;;;;1.05;0.73;;;4.70;99.90;;;;;;5049252;28;21006;-77
2022/02/01 13:52:32;;;;;;;2.35;0.75;;;4.70;99.90;;;;;;5034861;28;20277;-75
2022/02/01 13:55:01;;;;;;;1.02;0.80;;;4.60;99.90;;;;;;5047170;28;20345;-75
2022/02/01 13:57:32;;;;;;;1.98;0.90;;;4.80;99.90;;;;;;5050268;28;20224;-75
2022/02/01 14:00:12;;;;;;;1.43;0.90;;;4.70;99.90;;;;;;5049227;28;20621;-77
2022/02/01 14:02:45;;;;;;;1.92;0.98;;;5.00;99.90;;;;;;5047863;28;20450;-77
2022/02/01 14:05:25;;;;;;;2.33;0.75;;;5.20;99.90;;;;;;5044866;28;20245;-78
2022/02/01 14:08:18;;;;;;;1.47;1.00;;;4.90;99.90;;;;;;5043731;28;20597;-78
2022/02/01 14:11:27;;;;;;;2.10;0.83;;;4.70;99.90;;;;;;5039616;28;20766;-78
2022/02/01 14:25:49;;;;;;;1.23;0.75;;;4.60;99.90;;;;;;5048588;28;20209;-79
2022/02/01 14:28:29;;;;;;;3.38;0.95;;;4.50;1.00;;;;;;5047966;28;20235;-76
2022/02/01 14:33:58;;;;;;;2.67;0.90;;;4.10;23.90;;;;;;5042961;28;20200;-78
2022/02/01 14:36:29;;;;;;;1.13;0.80;;;4.50;9.90;;;;;;5037874;28;20828;-77
2022/02/01 14:39:11;;;;;;;1.45;0.93;;;4.30;1.00;;;;;;5044653;28;20257;-77
2022/02/01 14:44:42;;;;;;;2.10;0.75;;;4.00;99.90;;;;;;5046860;28;20289;-77
2022/02/01 14:47:13;;;;;;;0.70;0.70;;;3.80;99.90;;;;;;5038047;28;20262;-77
2022/02/01 14:49:44;;;;;;;1.10;0.75;;;3.90;99.90;;;;;;5047142;28;20210;-77
2022/02/01 14:52:13;;;;;;;3.42;1.10;;;3.70;1.00;;;;;;5032899;28;20738;-79